Terminal Aerodrome Forecast
Issued by NWS

Home | Current Version | Previous Version | Text Only | Print | Product List | Glossary On
Versions: 1 2 3 4 5 6 7 8 9 10 11 12 13
000
FTUS43 KICT 222320
TAFRSL
TAF
KRSL 222320Z 2300/2324 14012KT P6SM OVC030
     FM230200 15013KT P6SM OVC020
      TEMPO 2307/2311 4SM -DZ BR OVC008
     FM231100 16015G22KT 2SM -DZ BR OVC003
     FM231600 17020G28KT P6SM OVC020=

USA.gov is the U.S. government's official web portal to all federal, state and local government web resources and services.